Time;durP1;ratioP1;P1;durP2;ratioP2;P2;SDS_P1;SDS_P2;PMS_P1;PMS_P2;Temp;Humidity;BMP_temperature;BMP_pressure;BME280_temperature;BME280_humidity;BME280_pressure;Samples;Min_cycle;Max_cycle;Signal;HPM_P1;HPM_P2
2021/12/06 00:01:38;;;;;;;24.52;15.02;;;1.00;99.90;;;;;;4861538;29;20041;-87
2021/12/06 00:04:31;;;;;;;24.02;14.90;;;1.10;99.90;;;;;;4860520;29;20136;-83
2021/12/06 00:07:21;;;;;;;31.30;13.95;;;1.10;99.90;;;;;;4863846;29;20056;-82
2021/12/06 00:10:10;;;;;;;20.27;13.57;;;1.10;99.90;;;;;;4862559;29;20076;-84
2021/12/06 00:12:58;;;;;;;23.15;13.85;;;1.10;99.90;;;;;;4870737;29;20055;-83
2021/12/06 00:15:48;;;;;;;21.23;13.20;;;1.00;99.90;;;;;;4862956;29;20502;-85
2021/12/06 00:18:38;;;;;;;26.42;13.55;;;1.00;99.90;;;;;;4819897;29;20568;-85
2021/12/06 00:21:27;;;;;;;22.13;12.95;;;0.90;99.90;;;;;;4852767;29;20037;-84
2021/12/06 00:24:17;;;;;;;22.08;12.98;;;0.90;99.90;;;;;;4844506;29;20356;-85
2021/12/06 00:27:05;;;;;;;19.92;13.30;;;0.90;99.90;;;;;;4849617;29;20080;-83
2021/12/06 00:29:53;;;;;;;22.55;13.05;;;0.90;99.90;;;;;;4835656;29;20041;-84
2021/12/06 00:32:41;;;;;;;18.63;13.05;;;1.00;99.90;;;;;;4848064;29;20146;-85
2021/12/06 00:35:29;;;;;;;20.50;13.18;;;0.90;99.90;;;;;;4840206;29;20058;-84
2021/12/06 00:38:17;;;;;;;20.38;13.13;;;1.00;99.90;;;;;;4844052;29;20053;-86
2021/12/06 00:41:04;;;;;;;23.80;13.27;;;0.90;99.90;;;;;;4843914;29;20198;-83
2021/12/06 00:43:52;;;;;;;23.42;13.75;;;1.00;99.90;;;;;;4813728;29;20049;-84
2021/12/06 00:46:40;;;;;;;21.08;13.20;;;0.90;99.90;;;;;;4842467;29;20064;-84
2021/12/06 00:49:27;;;;;;;22.65;13.63;;;1.00;99.90;;;;;;4836603;29;20128;-84
2021/12/06 00:52:20;;;;;;;20.77;13.30;;;1.00;99.90;;;;;;4841485;29;20092;-84
2021/12/06 00:55:09;;;;;;;19.25;12.15;;;1.00;99.90;;;;;;4848541;29;20137;-85
2021/12/06 00:57:57;;;;;;;18.33;11.55;;;1.00;99.90;;;;;;4844268;29;20550;-83
2021/12/06 01:00:48;;;;;;;21.25;12.63;;;1.00;99.90;;;;;;4860430;29;20061;-85
2021/12/06 01:03:38;;;;;;;17.80;11.10;;;1.00;99.90;;;;;;4845160;29;20128;-84
2021/12/06 01:06:25;;;;;;;18.60;11.57;;;1.00;99.90;;;;;;4842738;29;20061;-84
2021/12/06 01:09:12;;;;;;;20.23;11.32;;;1.00;99.90;;;;;;4840010;29;20049;-83
2021/12/06 01:12:03;;;;;;;18.92;10.57;;;1.00;99.90;;;;;;4831534;29;20058;-83
2021/12/06 01:14:50;;;;;;;18.85;11.77;;;1.00;99.90;;;;;;4859376;29;20076;-85
2021/12/06 01:17:40;;;;;;;17.75;12.10;;;1.00;99.90;;;;;;4834309;29;20057;-85
2021/12/06 01:20:30;;;;;;;22.17;12.93;;;1.10;99.90;;;;;;4842862;29;20090;-84
2021/12/06 01:23:21;;;;;;;19.90;12.77;;;1.10;99.90;;;;;;4850288;29;20594;-84
2021/12/06 01:27:00;;;;;;;25.63;14.40;;;1.10;99.90;;;;;;4864424;29;20376;-82
2021/12/06 01:41:20;;;;;;;33.70;19.17;;;1.00;99.90;;;;;;4865475;29;20057;-82
2021/12/06 01:44:11;;;;;;;35.67;19.17;;;1.00;99.90;;;;;;4852535;29;20060;-84
2021/12/06 01:47:03;;;;;;;25.27;16.13;;;1.00;99.90;;;;;;4879409;29;20104;-84
2021/12/06 01:49:59;;;;;;;29.02;16.58;;;1.00;99.90;;;;;;4880764;29;20052;-82
2021/12/06 01:52:52;;;;;;;29.52;17.27;;;1.00;99.90;;;;;;4881114;29;20050;-83
2021/12/06 01:55:40;;;;;;;24.92;15.43;;;1.00;99.90;;;;;;4867228;29;20196;-82
2021/12/06 01:58:27;;;;;;;26.25;14.38;;;1.00;99.90;;;;;;4866602;29;20339;-84
2021/12/06 02:01:15;;;;;;;26.90;14.07;;;1.00;99.90;;;;;;4862887;29;20068;-83
2021/12/06 02:04:06;;;;;;;24.17;13.13;;;1.00;99.90;;;;;;4861421;29;20041;-83
2021/12/06 02:06:56;;;;;;;21.40;12.88;;;0.90;99.90;;;;;;4877171;29;20436;-85
2021/12/06 02:09:45;;;;;;;20.45;13.25;;;0.90;99.90;;;;;;4864055;29;20080;-85
2021/12/06 02:12:36;;;;;;;21.55;14.40;;;0.90;99.90;;;;;;4864473;29;20144;-83
2021/12/06 02:15:40;;;;;;;24.50;14.77;;;0.90;99.90;;;;;;4851175;29;20502;-84
2021/12/06 02:21:32;;;;;;;22.88;15.95;;;0.90;99.90;;;;;;4877600;29;20087;-83
2021/12/06 02:24:23;;;;;;;22.05;14.40;;;0.80;99.90;;;;;;4859427;29;20045;-83
2021/12/06 02:27:14;;;;;;;24.27;14.07;;;0.90;99.90;;;;;;4860801;29;20060;-83
2021/12/06 02:30:05;;;;;;;26.98;13.65;;;0.90;99.90;;;;;;4874690;29;20085;-84
2021/12/06 02:32:53;;;;;;;18.30;12.70;;;0.90;99.90;;;;;;4871957;29;20104;-83
2021/12/06 02:35:40;;;;;;;18.98;13.75;;;0.90;99.90;;;;;;4863430;29;20049;-85
2021/12/06 02:38:28;;;;;;;21.02;14.45;;;0.90;99.90;;;;;;4860737;29;20398;-83
2021/12/06 02:41:19;;;;;;;23.00;15.13;;;0.80;99.90;;;;;;4863823;29;20088;-84
2021/12/06 02:44:06;;;;;;;24.05;15.38;;;0.80;99.90;;;;;;4864817;29;20214;-84
2021/12/06 02:46:53;;;;;;;23.27;14.85;;;0.80;99.90;;;;;;4864156;29;20424;-85
2021/12/06 02:49:41;;;;;;;27.63;16.65;;;0.80;99.90;;;;;;4863103;29;20412;-85
2021/12/06 02:52:28;;;;;;;27.02;16.92;;;0.80;99.90;;;;;;4876275;29;20057;-85
2021/12/06 02:55:36;;;;;;;26.90;17.15;;;0.80;99.90;;;;;;4862813;29;20208;-83
2021/12/06 03:01:34;;;;;;;30.55;17.35;;;0.80;99.90;;;;;;4873473;29;20053;-84
2021/12/06 03:04:24;;;;;;;27.38;17.73;;;0.80;99.90;;;;;;4857293;29;20135;-83
2021/12/06 03:07:12;;;;;;;32.53;18.42;;;0.80;99.90;;;;;;4846222;29;20083;-85
2021/12/06 03:09:59;;;;;;;27.70;17.55;;;0.70;99.90;;;;;;4860964;29;20431;-86
2021/12/06 03:12:47;;;;;;;28.45;17.98;;;0.70;99.90;;;;;;4863832;29;20041;-85
2021/12/06 03:15:34;;;;;;;30.02;17.88;;;0.70;99.90;;;;;;4875617;29;20056;-83
2021/12/06 03:18:21;;;;;;;30.75;17.27;;;0.70;99.90;;;;;;4849464;29;20090;-83
2021/12/06 03:21:09;;;;;;;30.48;18.00;;;0.70;99.90;;;;;;4850852;29;20467;-82
2021/12/06 03:23:57;;;;;;;30.70;18.58;;;0.70;99.90;;;;;;4863765;29;20106;-83
2021/12/06 03:26:46;;;;;;;27.83;18.00;;;0.70;99.90;;;;;;4876885;29;20053;-82
2021/12/06 03:29:34;;;;;;;31.83;19.35;;;0.60;99.90;;;;;;4869161;29;20053;-82
2021/12/06 03:32:21;;;;;;;32.78;19.45;;;0.60;99.90;;;;;;4867009;29;20049;-83
2021/12/06 03:35:10;;;;;;;38.60;19.75;;;0.70;99.90;;;;;;4862851;29;20131;-83
2021/12/06 03:38:00;;;;;;;39.63;21.15;;;0.60;99.90;;;;;;4857912;29;20073;-82
2021/12/06 03:40:48;;;;;;;33.45;21.13;;;0.60;99.90;;;;;;4851487;29;20045;-83
2021/12/06 03:43:37;;;;;;;34.70;20.38;;;0.70;99.90;;;;;;4861240;29;20440;-82
2021/12/06 03:46:27;;;;;;;36.67;21.95;;;0.70;99.90;;;;;;4861265;29;20060;-83
2021/12/06 03:49:20;;;;;;;39.40;23.60;;;0.60;99.90;;;;;;4862097;29;20068;-82
2021/12/06 03:52:11;;;;;;;44.63;25.92;;;0.60;99.90;;;;;;4862836;29;20049;-84
2021/12/06 03:54:58;;;;;;;49.95;27.35;;;0.70;99.90;;;;;;4875833;29;20147;-85
2021/12/06 03:57:46;;;;;;;41.97;25.02;;;0.70;99.90;;;;;;4860735;29;20061;-84
2021/12/06 04:00:34;;;;;;;41.90;24.70;;;0.70;99.90;;;;;;4862084;29;20618;-85
2021/12/06 04:03:26;;;;;;;46.55;25.17;;;0.70;99.90;;;;;;4860659;29;20048;-83
2021/12/06 04:06:14;;;;;;;47.17;25.13;;;0.70;99.90;;;;;;4867265;29;20076;-85
2021/12/06 04:09:07;;;;;;;43.85;25.98;;;0.70;99.90;;;;;;4850417;29;20519;-85
2021/12/06 04:11:56;;;;;;;53.83;26.33;;;0.70;99.90;;;;;;4863777;29;20064;-84
2021/12/06 04:14:46;;;;;;;49.03;26.95;;;0.70;99.90;;;;;;4875544;29;20157;-85
2021/12/06 04:17:35;;;;;;;60.78;28.75;;;0.60;99.90;;;;;;4874389;29;20200;-84
2021/12/06 04:20:22;;;;;;;46.70;25.73;;;0.60;99.90;;;;;;4862634;29;20102;-85
2021/12/06 04:23:12;;;;;;;46.53;26.15;;;0.60;99.90;;;;;;4861610;29;20048;-85
2021/12/06 04:26:00;;;;;;;57.47;28.88;;;0.70;99.90;;;;;;4875134;29;20056;-85
2021/12/06 04:28:57;;;;;;;49.85;27.00;;;0.70;99.90;;;;;;4862873;29;20500;-85
2021/12/06 04:31:53;;;;;;;50.75;28.33;;;0.70;99.90;;;;;;4862557;29;20049;-84
2021/12/06 04:34:45;;;;;;;63.50;28.92;;;0.80;99.90;;;;;;4875342;29;20557;-85
2021/12/06 04:37:34;;;;;;;63.30;30.10;;;0.80;99.90;;;;;;4862013;29;20109;-84
2021/12/06 04:40:27;;;;;;;62.53;28.73;;;0.90;99.90;;;;;;4850885;29;20372;-84
2021/12/06 04:43:20;;;;;;;59.72;29.70;;;0.90;99.90;;;;;;4864833;29;20357;-83
2021/12/06 04:46:10;;;;;;;56.90;27.55;;;0.90;99.90;;;;;;4832995;29;20041;-82
2021/12/06 04:49:04;;;;;;;59.28;27.85;;;0.90;99.90;;;;;;4854180;29;20472;-84
2021/12/06 04:51:53;;;;;;;68.20;30.10;;;0.90;99.90;;;;;;4870442;29;20053;-84
2021/12/06 04:54:45;;;;;;;74.85;31.25;;;1.00;99.90;;;;;;4868402;29;20056;-85
2021/12/06 04:57:42;;;;;;;62.80;29.65;;;1.00;99.90;;;;;;4861996;29;20049;-84
2021/12/06 05:00:38;;;;;;;78.20;31.30;;;1.00;99.90;;;;;;4851088;29;20049;-85
2021/12/06 05:03:33;;;;;;;74.65;32.70;;;1.00;99.90;;;;;;4878655;29;20049;-85
2021/12/06 05:06:31;;;;;;;80.22;33.00;;;1.00;99.90;;;;;;4879555;29;20057;-84
2021/12/06 05:09:24;;;;;;;86.25;34.60;;;1.00;99.90;;;;;;4857976;29;20050;-85
2021/12/06 05:12:14;;;;;;;80.43;33.05;;;1.00;99.90;;;;;;4877876;29;20151;-84
2021/12/06 05:15:04;;;;;;;81.30;35.05;;;1.00;99.90;;;;;;4879883;29;20090;-84
2021/12/06 05:17:51;;;;;;;93.55;36.65;;;1.00;99.90;;;;;;4865237;29;20551;-85
2021/12/06 05:20:42;;;;;;;81.72;35.08;;;1.00;99.90;;;;;;4847147;29;20083;-85
2021/12/06 05:23:29;;;;;;;79.75;37.53;;;1.10;99.90;;;;;;4877859;29;20180;-84
2021/12/06 05:26:17;;;;;;;75.20;36.33;;;1.10;99.90;;;;;;4864528;29;20093;-83
2021/12/06 05:29:09;;;;;;;71.38;35.13;;;1.20;99.90;;;;;;4866541;29;20495;-83
2021/12/06 05:32:00;;;;;;;70.07;35.80;;;1.10;99.90;;;;;;4866317;29;20799;-83
2021/12/06 05:34:50;;;;;;;73.75;34.65;;;1.20;99.90;;;;;;4865387;29;20124;-82
2021/12/06 06:00:58;;;;;;;82.75;35.65;;;1.30;99.90;;;;;;5089894;27;20381;-86
2021/12/06 06:03:46;;;;;;;87.00;37.75;;;1.20;99.90;;;;;;5086424;28;20102;-88
2021/12/06 06:06:39;;;;;;;89.20;39.03;;;1.20;99.90;;;;;;5068082;28;20356;-87
2021/12/06 06:09:29;;;;;;;92.20;39.95;;;1.20;99.90;;;;;;5078941;28;20052;-85
2021/12/06 06:16:35;;;;;;;83.90;38.25;;;1.20;99.90;;;;;;5083400;28;20407;-92
2021/12/06 06:20:48;;;;;;;;;;;;;;;;;;;;;
2021/12/06 06:24:31;;;;;;;;;;;;;;;;;;;;;
2021/12/06 06:31:42;;;;;;;72.15;36.78;;;1.30;99.90;;;;;;4965889;28;20043;-91
2021/12/06 06:34:41;;;;;;;77.03;36.60;;;1.30;99.90;;;;;;4967063;28;20055;-86
2021/12/06 06:37:29;;;;;;;71.07;33.90;;;1.40;99.90;;;;;;4994715;28;20107;-85
2021/12/06 06:40:28;;;;;;;69.78;33.95;;;1.40;99.90;;;;;;5007490;28;20069;-91
2021/12/06 06:43:22;;;;;;;72.80;36.15;;;1.40;99.90;;;;;;5031284;28;20057;-89
2021/12/06 06:47:17;;;;;;;64.97;32.58;;;1.40;99.90;;;;;;5032274;28;20061;-88
2021/12/06 09:42:22;;;;;;;40.45;21.60;;;3.30;99.90;;;;;;4889892;29;20045;-90
2021/12/06 09:50:10;;;;;;;30.67;19.08;;;3.70;99.90;;;;;;4877610;29;20101;-89
2021/12/06 09:53:04;;;;;;;26.25;16.35;;;4.10;99.90;;;;;;4878960;29;20067;-80
2021/12/06 09:55:53;;;;;;;20.70;12.93;;;4.40;99.90;;;;;;4872702;29;20072;-81
2021/12/06 09:58:43;;;;;;;17.77;11.30;;;4.70;99.90;;;;;;4898478;29;20041;-80
2021/12/06 10:01:46;;;;;;;16.35;11.02;;;4.90;99.90;;;;;;4874471;29;20049;-81
2021/12/06 10:04:39;;;;;;;15.07;9.30;;;4.90;99.90;;;;;;4874027;29;20405;-81
2021/12/06 10:07:26;;;;;;;;;;;4.90;99.90;;;;;;4884737;29;20045;-81
2021/12/06 10:10:14;;;;;;;15.88;10.70;;;4.80;99.90;;;;;;4898591;29;19950;-83
2021/12/06 10:13:06;;;;;;;18.60;11.70;;;4.60;99.90;;;;;;4869300;29;20469;-82
2021/12/06 10:15:53;;;;;;;17.33;12.30;;;4.70;99.90;;;;;;4883094;29;20059;-82
2021/12/06 10:18:41;;;;;;;17.88;11.13;;;4.70;99.90;;;;;;4869407;29;20045;-82
2021/12/06 10:21:29;;;;;;;19.10;11.52;;;4.70;99.90;;;;;;4872202;29;20676;-83
2021/12/06 10:24:20;;;;;;;19.10;11.50;;;4.60;99.90;;;;;;4883386;29;20067;-82
2021/12/06 10:27:15;;;;;;;18.45;11.52;;;4.70;99.90;;;;;;4874050;29;20100;-81
2021/12/06 10:30:11;;;;;;;20.00;12.50;;;4.70;99.90;;;;;;4884429;29;20049;-81
2021/12/06 10:33:16;;;;;;;17.98;10.95;;;4.70;99.90;;;;;;4885204;29;20041;-80
2021/12/06 10:36:15;;;;;;;22.50;13.45;;;4.70;99.90;;;;;;4869127;29;20128;-82
2021/12/06 10:39:06;;;;;;;22.27;15.05;;;4.40;99.90;;;;;;4879349;29;20060;-81
2021/12/06 10:41:54;;;;;;;24.23;14.20;;;4.30;99.90;;;;;;4888323;29;20060;-81
2021/12/06 11:24:55;;;;;;;12.82;8.35;;;6.70;99.90;;;;;;4832841;29;20042;-89
2021/12/06 11:27:44;;;;;;;10.38;7.05;;;9.20;99.90;;;;;;4841976;29;20064;-87
2021/12/06 11:30:38;;;;;;;13.52;9.23;;;9.80;99.50;;;;;;4865577;29;20045;-88
2021/12/06 11:33:35;;;;;;;10.23;7.95;;;10.10;97.10;;;;;;4878684;29;20101;-91
2021/12/06 11:36:23;;;;;;;11.45;8.82;;;10.20;94.60;;;;;;4876402;29;20057;-88
2021/12/06 11:46:45;;;;;;;11.52;7.20;;;10.60;92.40;;;;;;5371222;23;20051;-88
2021/12/06 12:06:54;;;;;;;;;;;;;;;;;;;;;
2021/12/06 14:12:18;;;;;;;3.42;2.53;;;8.60;93.90;;;;;;6242248;23;20607;-84
2021/12/06 14:20:14;;;;;;;4.43;2.00;;;7.80;93.80;;;;;;6095118;23;20029;-89
2021/12/06 15:02:01;;;;;;;2.57;2.13;;;2.70;99.90;;;;;;6125122;23;20032;-90
2021/12/06 15:05:12;;;;;;;7.47;3.10;;;2.70;99.90;;;;;;6254678;23;20028;-87
2021/12/06 15:09:06;;;;;;;;;;;;;;;;;;;;;
2021/12/06 15:17:57;;;;;;;;;;;;;;;;;;;;;
2021/12/06 15:25:47;;;;;;;3.13;2.25;;;2.70;99.90;;;;;;6095960;23;20033;-88
2021/12/06 15:33:50;;;;;;;6.90;2.55;;;2.30;99.90;;;;;;6039437;23;20019;-86
2021/12/06 15:37:08;;;;;;;2.20;2.00;;;2.00;99.90;;;;;;5872439;24;20026;-86
2021/12/06 15:41:20;;;;;;;;;;;;;;;;;;;;;
2021/12/06 15:44:50;;;;;;;6.20;2.85;;;1.60;99.90;;;;;;5837397;24;20078;-86
2021/12/06 15:48:33;;;;;;;;;;;;;;;;;;;;;
2021/12/06 15:51:59;;;;;;;6.35;3.67;;;1.30;99.90;;;;;;5854897;24;20163;-85
2021/12/06 16:04:08;;;;;;;7.05;3.95;;;0.90;99.90;;;;;;6090084;22;20290;-85
2021/12/06 16:07:34;;;;;;;4.13;3.38;;;0.80;99.90;;;;;;6218624;23;20028;-87
2021/12/06 16:10:58;;;;;;;;;;;0.70;99.90;;;;;;6229988;23;20103;-87
2021/12/06 16:13:50;;;;;;;5.35;3.20;;;0.60;99.90;;;;;;6141120;23;19915;-85
2021/12/06 16:16:52;;;;;;;6.05;3.60;;;0.60;99.90;;;;;;6219138;23;20028;-87
2021/12/06 16:19:40;;;;;;;5.97;3.63;;;0.50;99.90;;;;;;6179846;23;20073;-86
2021/12/06 16:22:30;;;;;;;6.93;3.78;;;0.50;99.90;;;;;;6240439;23;20106;-87
2021/12/06 16:25:20;;;;;;;7.90;4.22;;;0.40;99.90;;;;;;6220531;23;20031;-87
2021/12/06 16:28:08;;;;;;;6.32;3.70;;;0.40;99.90;;;;;;6240651;23;20028;-85
2021/12/06 16:31:05;;;;;;;11.27;6.10;;;0.30;99.90;;;;;;6241642;23;20028;-85
2021/12/06 16:34:02;;;;;;;26.23;9.98;;;0.30;99.90;;;;;;6223375;23;20054;-87
2021/12/06 16:37:04;;;;;;;15.70;8.10;;;0.20;99.90;;;;;;6243362;23;20035;-86
2021/12/06 16:40:12;;;;;;;9.93;5.25;;;0.30;99.90;;;;;;6222482;23;20028;-86
2021/12/06 16:43:05;;;;;;;9.73;5.78;;;0.40;99.90;;;;;;6243115;23;20020;-85
2021/12/06 16:45:56;;;;;;;10.20;5.80;;;0.50;99.90;;;;;;6199986;23;20336;-86
2021/12/06 16:48:57;;;;;;;7.38;5.80;;;0.50;99.90;;;;;;6219011;23;20075;-86
2021/12/06 16:51:52;;;;;;;13.73;6.43;;;0.40;99.90;;;;;;6220017;23;20031;-87
2021/12/06 16:54:53;;;;;;;18.52;9.52;;;0.40;99.90;;;;;;6218185;23;20099;-87
2021/12/06 16:57:50;;;;;;;30.38;14.23;;;0.30;99.90;;;;;;6222358;23;20138;-85
2021/12/06 17:00:52;;;;;;;23.58;10.80;;;0.20;99.90;;;;;;6241421;23;20024;-84
2021/12/06 17:03:53;;;;;;;18.55;9.15;;;0.20;99.90;;;;;;6243054;22;20158;-85
2021/12/06 17:06:50;;;;;;;14.25;7.95;;;0.20;99.90;;;;;;6225904;23;20185;-86
2021/12/06 17:09:40;;;;;;;15.23;8.05;;;0.20;99.90;;;;;;6226321;23;20024;-87
2021/12/06 17:12:45;;;;;;;17.35;11.18;;;0.20;99.90;;;;;;6185072;23;20070;-87
2021/12/06 17:15:58;;;;;;;18.08;11.10;;;0.20;99.90;;;;;;6247950;23;20028;-87
2021/12/06 17:18:54;;;;;;;9.50;6.30;;;0.10;99.90;;;;;;6226491;23;20090;-85
2021/12/06 17:21:53;;;;;;;11.55;7.35;;;0.20;99.90;;;;;;6213429;23;20020;-85
2021/12/06 17:25:04;;;;;;;10.23;6.78;;;0.20;99.90;;;;;;6234510;23;20035;-85
2021/12/06 17:28:42;;;;;;;17.35;9.75;;;0.20;99.90;;;;;;6252752;23;20015;-85
2021/12/06 17:31:49;;;;;;;22.60;12.18;;;0.10;99.90;;;;;;6258209;23;20028;-85
2021/12/06 17:35:02;;;;;;;23.42;12.13;;;-0.10;99.90;;;;;;6216704;23;20054;-85
2021/12/06 17:38:08;;;;;;;19.50;10.27;;;-0.30;99.90;;;;;;6235581;23;20039;-86
2021/12/06 17:44:51;;;;;;;19.67;11.82;;;-0.60;99.90;;;;;;6258521;23;20035;-84
2021/12/06 17:47:46;;;;;;;17.15;9.43;;;-0.60;99.90;;;;;;6234231;23;20109;-86
2021/12/06 17:50:50;;;;;;;31.33;20.13;;;-0.60;99.90;;;;;;6235964;23;20440;-88
2021/12/06 17:53:53;;;;;;;20.30;11.38;;;-0.50;99.90;;;;;;6219030;23;20019;-87
2021/12/06 17:56:50;;;;;;;12.50;9.05;;;-0.30;99.90;;;;;;6231780;23;20098;-85
2021/12/06 18:00:14;;;;;;;20.50;11.88;;;-0.30;99.90;;;;;;6161996;23;20084;-85
2021/12/06 18:03:28;;;;;;;22.58;12.43;;;-0.20;99.90;;;;;;6165303;23;20034;-85
2021/12/06 18:06:30;;;;;;;19.80;10.45;;;-0.20;99.90;;;;;;6128447;23;20030;-85
2021/12/06 18:09:39;;;;;;;15.77;8.35;;;-0.40;99.90;;;;;;6150098;23;20029;-86
2021/12/06 18:12:31;;;;;;;16.42;8.32;;;-0.40;99.90;;;;;;6163564;23;20033;-86
2021/12/06 18:15:41;;;;;;;12.57;7.10;;;-0.30;99.90;;;;;;6169322;23;20029;-85
2021/12/06 18:18:44;;;;;;;14.85;7.32;;;-0.30;99.90;;;;;;6155844;23;20081;-86
2021/12/06 18:21:47;;;;;;;12.32;6.47;;;-0.20;99.90;;;;;;6152939;23;20025;-86
2021/12/06 18:24:54;;;;;;;11.32;6.63;;;-0.20;99.90;;;;;;6150795;23;20476;-84
2021/12/06 18:28:03;;;;;;;12.23;6.70;;;-0.10;99.90;;;;;;6170090;23;20444;-88
2021/12/06 18:31:06;;;;;;;10.63;6.40;;;-0.10;99.90;;;;;;6201337;23;20024;-86
2021/12/06 18:33:57;;;;;;;10.88;6.18;;;-0.10;99.90;;;;;;6240053;23;20024;-84
2021/12/06 18:36:59;;;;;;;11.10;5.60;;;-0.10;99.90;;;;;;6259952;23;20071;-85
2021/12/06 18:40:01;;;;;;;11.40;6.38;;;-0.20;99.90;;;;;;6239606;23;20100;-85
2021/12/06 18:43:04;;;;;;;7.88;5.40;;;-0.20;99.90;;;;;;6225811;23;20073;-84
2021/12/06 18:46:16;;;;;;;11.65;5.78;;;-0.20;99.90;;;;;;6259615;23;20028;-84
2021/12/06 18:49:18;;;;;;;10.40;5.10;;;-0.20;99.90;;;;;;6237628;23;20021;-84
2021/12/06 18:52:10;;;;;;;8.60;6.18;;;-0.20;99.90;;;;;;6237331;23;20083;-86
2021/12/06 18:55:08;;;;;;;9.63;5.60;;;-0.20;99.90;;;;;;6240163;23;20074;-86
2021/12/06 18:58:02;;;;;;;12.00;6.75;;;-0.10;99.90;;;;;;6237257;23;20110;-85
2021/12/06 19:01:03;;;;;;;13.02;8.40;;;-0.20;99.90;;;;;;6259094;23;20056;-84
2021/12/06 19:03:56;;;;;;;16.05;8.70;;;-0.20;99.90;;;;;;6236344;22;20364;-85
2021/12/06 19:07:00;;;;;;;12.70;7.55;;;-0.30;99.90;;;;;;6215780;23;20020;-85
2021/12/06 19:10:00;;;;;;;12.85;7.88;;;-0.30;99.90;;;;;;6230873;23;20385;-86
2021/12/06 19:13:16;;;;;;;14.98;8.82;;;-0.30;99.90;;;;;;6246170;23;20027;-88
2021/12/06 19:16:08;;;;;;;15.30;9.27;;;-0.40;99.90;;;;;;6227057;23;20453;-86
2021/12/06 19:18:58;;;;;;;14.57;9.57;;;-0.50;99.90;;;;;;6204186;23;20038;-86
2021/12/06 19:22:17;;;;;;;19.55;10.20;;;-0.50;99.90;;;;;;6225328;23;20222;-86
2021/12/06 19:25:40;;;;;;;20.67;9.52;;;-0.60;99.90;;;;;;6229000;23;20088;-87
2021/12/06 19:34:19;;;;;;;;;;;;;;;;;;;;;
2021/12/06 20:08:04;;;;;;;54.92;27.45;;;-0.60;99.90;;;;;;6034069;23;20030;-84
2021/12/06 20:10:55;;;;;;;50.20;24.05;;;-0.40;99.90;;;;;;6068445;23;20039;-85
2021/12/06 20:13:51;;;;;;;28.63;16.45;;;-0.40;99.90;;;;;;6063187;23;20037;-86
2021/12/06 20:17:07;;;;;;;24.35;14.75;;;-0.30;99.90;;;;;;6197261;23;20173;-85
2021/12/06 20:19:58;;;;;;;22.95;14.20;;;-0.20;99.90;;;;;;6171950;23;20391;-86
2021/12/06 20:23:20;;;;;;;20.27;13.10;;;-0.20;99.90;;;;;;6174880;23;20032;-82
2021/12/06 20:30:32;;;;;;;19.77;12.65;;;-0.20;99.90;;;;;;6085197;23;20038;-86
2021/12/06 20:33:20;;;;;;;20.00;11.10;;;-0.10;99.90;;;;;;6087506;23;20426;-87
2021/12/06 20:36:10;;;;;;;16.67;10.68;;;-0.10;99.90;;;;;;6087535;23;20045;-84
2021/12/06 20:39:01;;;;;;;16.52;10.60;;;-0.10;99.90;;;;;;6089321;23;20447;-84
2021/12/06 20:42:06;;;;;;;12.80;9.10;;;0.00;99.90;;;;;;6089265;23;20048;-86
2021/12/06 20:44:55;;;;;;;16.05;9.23;;;0.00;99.90;;;;;;6092016;23;20026;-85
2021/12/06 20:47:48;;;;;;;13.02;8.95;;;0.00;99.90;;;;;;6092566;23;20026;-85
2021/12/06 20:50:50;;;;;;;13.68;9.38;;;0.10;99.90;;;;;;6093656;23;20026;-84
2021/12/06 20:53:39;;;;;;;15.30;9.35;;;0.10;99.90;;;;;;6095200;23;20026;-86
2021/12/06 20:56:26;;;;;;;15.70;8.75;;;0.00;99.90;;;;;;6094210;23;20030;-84
2021/12/06 20:59:20;;;;;;;14.13;10.07;;;0.00;99.90;;;;;;6094334;23;20030;-85
2021/12/06 21:02:10;;;;;;;15.55;8.95;;;0.00;99.90;;;;;;6097845;23;20037;-85
2021/12/06 21:04:59;;;;;;;14.95;9.18;;;0.00;99.90;;;;;;6199167;22;20103;-86
2021/12/06 21:07:47;;;;;;;15.48;8.23;;;0.00;99.90;;;;;;6225016;23;20048;-85
2021/12/06 21:10:46;;;;;;;12.45;8.75;;;-0.10;99.90;;;;;;6243124;23;20094;-86
2021/12/06 21:13:56;;;;;;;13.40;8.68;;;-0.10;99.90;;;;;;6242943;23;20020;-84
2021/12/06 21:16:46;;;;;;;13.40;9.38;;;-0.20;99.90;;;;;;6207341;23;20028;-87
2021/12/06 21:19:35;;;;;;;16.10;10.40;;;-0.20;99.90;;;;;;6220370;23;20039;-86
2021/12/06 21:22:28;;;;;;;18.33;10.25;;;-0.20;99.90;;;;;;6222229;23;20340;-85
2021/12/06 21:25:18;;;;;;;14.63;9.35;;;-0.20;99.90;;;;;;6201356;23;20020;-86
2021/12/06 21:28:06;;;;;;;17.30;10.43;;;-0.20;99.90;;;;;;6224397;23;20039;-85
2021/12/06 21:30:54;;;;;;;16.52;10.43;;;-0.20;99.90;;;;;;6219260;23;20043;-87
2021/12/06 21:33:45;;;;;;;18.15;11.07;;;-0.30;99.90;;;;;;6220109;23;20384;-86
2021/12/06 21:36:35;;;;;;;21.08;11.50;;;-0.20;99.90;;;;;;6201225;23;20028;-83
2021/12/06 21:39:23;;;;;;;18.50;10.68;;;-0.20;99.90;;;;;;6203036;23;20032;-89
2021/12/06 21:42:16;;;;;;;17.05;10.40;;;-0.30;99.90;;;;;;6206499;23;20324;-88
2021/12/06 21:45:06;;;;;;;16.27;10.13;;;-0.20;99.90;;;;;;6221084;23;20171;-86
2021/12/06 21:47:57;;;;;;;18.52;10.50;;;-0.20;99.90;;;;;;6225222;23;20304;-86
2021/12/06 21:50:47;;;;;;;17.42;10.15;;;-0.10;99.90;;;;;;6226501;23;20117;-88
2021/12/06 21:53:42;;;;;;;18.33;9.98;;;-0.10;99.90;;;;;;6202652;23;20343;-87
2021/12/06 21:57:12;;;;;;;11.98;8.38;;;-0.10;99.90;;;;;;6223809;23;20032;-85
2021/12/06 22:00:15;;;;;;;16.88;9.38;;;0.00;99.90;;;;;;6243164;23;20035;-85
2021/12/06 22:03:09;;;;;;;12.25;7.90;;;0.00;99.90;;;;;;6243283;23;20450;-87
2021/12/06 22:06:00;;;;;;;14.40;8.15;;;0.10;99.90;;;;;;6244873;22;20376;-85
2021/12/06 22:12:31;;;;;;;9.95;7.57;;;0.10;99.90;;;;;;6243440;23;20039;-86
2021/12/06 22:15:35;;;;;;;12.30;8.15;;;0.20;99.90;;;;;;6181347;23;20119;-84
2021/12/06 22:18:30;;;;;;;10.70;6.63;;;0.20;99.90;;;;;;6220764;23;20024;-86
2021/12/06 22:21:26;;;;;;;11.13;6.65;;;0.20;99.90;;;;;;6222865;23;20075;-87
2021/12/06 22:24:19;;;;;;;10.55;7.03;;;0.20;99.90;;;;;;6221000;23;20055;-86
2021/12/06 22:27:13;;;;;;;9.93;7.05;;;0.20;99.90;;;;;;6222830;23;20103;-87
2021/12/06 22:30:12;;;;;;;9.57;7.32;;;0.30;99.90;;;;;;6220679;23;20136;-86
2021/12/06 22:33:37;;;;;;;10.68;7.43;;;0.20;99.90;;;;;;6220806;23;20036;-87
2021/12/06 22:36:29;;;;;;;10.90;7.43;;;0.20;99.90;;;;;;6221105;23;20039;-84
2021/12/06 22:39:20;;;;;;;12.15;7.28;;;0.30;99.90;;;;;;6222137;23;20032;-86
2021/12/06 22:42:13;;;;;;;9.38;6.93;;;0.30;99.90;;;;;;6241482;23;20031;-86
2021/12/06 22:45:05;;;;;;;9.35;6.45;;;0.30;99.90;;;;;;6242490;23;20170;-86
2021/12/06 22:48:16;;;;;;;10.30;7.43;;;0.30;99.90;;;;;;6241047;23;20024;-84
2021/12/06 22:51:32;;;;;;;12.63;7.05;;;0.40;99.90;;;;;;6222887;23;20364;-86
2021/12/06 22:54:22;;;;;;;9.05;6.63;;;0.40;99.90;;;;;;6220800;23;20127;-86
2021/12/06 22:57:09;;;;;;;11.48;6.65;;;0.50;99.90;;;;;;6221227;23;20024;-87
2021/12/06 22:59:57;;;;;;;11.80;7.25;;;0.60;99.90;;;;;;6241404;23;20024;-85
2021/12/06 23:02:47;;;;;;;8.55;6.28;;;0.60;99.90;;;;;;6181311;23;20025;-86
2021/12/06 23:05:38;;;;;;;10.07;7.38;;;0.60;99.90;;;;;;6220047;23;20058;-86
2021/12/06 23:08:30;;;;;;;8.43;5.90;;;0.70;99.90;;;;;;6221612;23;20470;-85
2021/12/06 23:11:27;;;;;;;10.15;6.90;;;0.70;99.90;;;;;;6202724;23;20430;-85
2021/12/06 23:14:19;;;;;;;9.82;6.90;;;0.70;99.90;;;;;;6243920;23;20016;-86
2021/12/06 23:17:12;;;;;;;9.20;6.80;;;0.70;99.90;;;;;;6222831;23;20388;-83
2021/12/06 23:20:03;;;;;;;9.32;6.50;;;0.70;99.90;;;;;;6201555;23;20020;-84
2021/12/06 23:22:56;;;;;;;8.70;6.18;;;0.70;99.90;;;;;;6199748;23;20027;-85
2021/12/06 23:25:54;;;;;;;9.60;6.60;;;0.70;99.90;;;;;;6241730;23;20028;-86
2021/12/06 23:29:05;;;;;;;10.25;6.40;;;0.80;99.90;;;;;;6222004;23;20024;-84
2021/12/06 23:32:03;;;;;;;9.43;6.45;;;0.70;99.90;;;;;;6223097;23;20024;-84
2021/12/06 23:35:07;;;;;;;;;;;;;;;;;;;;;
2021/12/06 23:38:17;;;;;;;9.60;6.15;;;0.70;99.90;;;;;;6227127;23;20304;-84
2021/12/06 23:41:19;;;;;;;13.70;8.02;;;0.70;99.90;;;;;;6186005;23;20086;-85
2021/12/06 23:47:21;;;;;;;9.85;6.47;;;0.70;99.90;;;;;;6210954;23;20024;-86
2021/12/06 23:50:09;;;;;;;13.18;6.82;;;0.60;99.90;;;;;;6205220;23;20036;-87
2021/12/06 23:52:56;;;;;;;8.23;6.20;;;0.60;99.90;;;;;;6223618;23;20024;-86
2021/12/06 23:56:01;;;;;;;11.63;7.05;;;0.60;99.90;;;;;;6222949;23;20031;-86
2021/12/06 23:59:12;;;;;;;9.15;5.82;;;0.60;99.90;;;;;;6206589;23;20118;-83
